sensor_id;sensor_type;location;lat;lon;timestamp;P1;durP1;ratioP1;P2;durP2;ratioP2
40931;SDS011;36257;46.052;12.540;2022-12-10T00:01:10;47.22;;;28.48;;
40931;SDS011;36257;46.052;12.540;2022-12-10T00:03:45;33.20;;;24.65;;
40931;SDS011;36257;46.052;12.540;2022-12-10T00:06:12;51.45;;;26.42;;
40931;SDS011;36257;46.052;12.540;2022-12-10T00:08:39;26.45;;;22.15;;
40931;SDS011;36257;46.052;12.540;2022-12-10T00:11:09;48.17;;;26.45;;
40931;SDS011;36257;46.052;12.540;2022-12-10T00:13:37;148.25;;;30.77;;
40931;SDS011;36257;46.052;12.540;2022-12-10T00:16:04;191.85;;;33.90;;
40931;SDS011;36257;46.052;12.540;2022-12-10T00:18:31;79.40;;;29.55;;
40931;SDS011;36257;46.052;12.540;2022-12-10T00:20:58;40.60;;;25.00;;
40931;SDS011;36257;46.052;12.540;2022-12-10T00:23:26;33.45;;;26.90;;
40931;SDS011;36257;46.052;12.540;2022-12-10T00:25:52;115.80;;;28.08;;
40931;SDS011;36257;46.052;12.540;2022-12-10T00:28:17;58.65;;;24.67;;
40931;SDS011;36257;46.052;12.540;2022-12-10T00:30:43;92.15;;;23.77;;
40931;SDS011;36257;46.052;12.540;2022-12-10T00:33:08;101.70;;;21.50;;
40931;SDS011;36257;46.052;12.540;2022-12-10T00:35:34;38.92;;;18.90;;
40931;SDS011;36257;46.052;12.540;2022-12-10T00:38:01;20.13;;;17.20;;
40931;SDS011;36257;46.052;12.540;2022-12-10T00:40:27;23.20;;;18.67;;
40931;SDS011;36257;46.052;12.540;2022-12-10T00:42:53;27.10;;;17.90;;
40931;SDS011;36257;46.052;12.540;2022-12-10T00:45:18;113.60;;;20.88;;
40931;SDS011;36257;46.052;12.540;2022-12-10T00:47:44;20.48;;;16.38;;
40931;SDS011;36257;46.052;12.540;2022-12-10T00:50:10;21.30;;;16.23;;
40931;SDS011;36257;46.052;12.540;2022-12-10T00:52:35;25.83;;;17.02;;
40931;SDS011;36257;46.052;12.540;2022-12-10T00:55:01;29.23;;;16.95;;
40931;SDS011;36257;46.052;12.540;2022-12-10T00:57:27;51.20;;;21.50;;
40931;SDS011;36257;46.052;12.540;2022-12-10T00:59:53;32.85;;;22.25;;
40931;SDS011;36257;46.052;12.540;2022-12-10T01:02:21;25.05;;;20.33;;
40931;SDS011;36257;46.052;12.540;2022-12-10T01:04:47;29.77;;;21.00;;
40931;SDS011;36257;46.052;12.540;2022-12-10T01:07:17;23.35;;;18.73;;
40931;SDS011;36257;46.052;12.540;2022-12-10T01:09:43;21.80;;;18.38;;
40931;SDS011;36257;46.052;12.540;2022-12-10T01:12:08;21.08;;;16.55;;
40931;SDS011;36257;46.052;12.540;2022-12-10T01:14:34;24.17;;;16.98;;
40931;SDS011;36257;46.052;12.540;2022-12-10T01:17:01;23.45;;;18.17;;
40931;SDS011;36257;46.052;12.540;2022-12-10T01:19:29;29.77;;;17.58;;
40931;SDS011;36257;46.052;12.540;2022-12-10T01:21:55;22.85;;;18.27;;
40931;SDS011;36257;46.052;12.540;2022-12-10T01:24:21;22.80;;;18.08;;
40931;SDS011;36257;46.052;12.540;2022-12-10T01:26:48;24.38;;;19.90;;
40931;SDS011;36257;46.052;12.540;2022-12-10T01:29:15;30.48;;;21.52;;
40931;SDS011;36257;46.052;12.540;2022-12-10T01:31:41;25.67;;;20.15;;
40931;SDS011;36257;46.052;12.540;2022-12-10T01:34:07;29.92;;;22.08;;
40931;SDS011;36257;46.052;12.540;2022-12-10T01:36:37;31.58;;;23.10;;
40931;SDS011;36257;46.052;12.540;2022-12-10T01:39:05;29.88;;;21.83;;
40931;SDS011;36257;46.052;12.540;2022-12-10T01:41:33;31.63;;;23.88;;
40931;SDS011;36257;46.052;12.540;2022-12-10T01:46:51;25.50;;;21.10;;
40931;SDS011;36257;46.052;12.540;2022-12-10T01:49:20;21.80;;;18.27;;
40931;SDS011;36257;46.052;12.540;2022-12-10T01:51:54;20.33;;;17.38;;
40931;SDS011;36257;46.052;12.540;2022-12-10T01:54:25;20.02;;;16.10;;
40931;SDS011;36257;46.052;12.540;2022-12-10T01:56:54;14.90;;;13.00;;
40931;SDS011;36257;46.052;12.540;2022-12-10T01:59:27;16.77;;;14.32;;
40931;SDS011;36257;46.052;12.540;2022-12-10T02:12:56;31.50;;;19.60;;
40931;SDS011;36257;46.052;12.540;2022-12-10T02:15:29;385.30;;;35.20;;
40931;SDS011;36257;46.052;12.540;2022-12-10T02:17:59;46.15;;;19.75;;
40931;SDS011;36257;46.052;12.540;2022-12-10T02:20:33;139.73;;;26.38;;
40931;SDS011;36257;46.052;12.540;2022-12-10T02:23:04;68.65;;;23.40;;
40931;SDS011;36257;46.052;12.540;2022-12-10T02:31:09;53.90;;;22.45;;
40931;SDS011;36257;46.052;12.540;2022-12-10T02:33:37;28.35;;;22.38;;
40931;SDS011;36257;46.052;12.540;2022-12-10T02:36:07;30.98;;;22.83;;
40931;SDS011;36257;46.052;12.540;2022-12-10T02:38:35;28.75;;;22.42;;
40931;SDS011;36257;46.052;12.540;2022-12-10T02:41:05;29.23;;;21.50;;
40931;SDS011;36257;46.052;12.540;2022-12-10T02:43:43;26.30;;;21.85;;
40931;SDS011;36257;46.052;12.540;2022-12-10T02:46:11;23.90;;;19.77;;
40931;SDS011;36257;46.052;12.540;2022-12-10T02:48:37;23.63;;;18.92;;
40931;SDS011;36257;46.052;12.540;2022-12-10T02:51:05;27.38;;;20.58;;
40931;SDS011;36257;46.052;12.540;2022-12-10T02:53:31;171.93;;;28.33;;
40931;SDS011;36257;46.052;12.540;2022-12-10T02:56:02;23.95;;;20.63;;
40931;SDS011;36257;46.052;12.540;2022-12-10T02:58:54;25.67;;;21.35;;
40931;SDS011;36257;46.052;12.540;2022-12-10T03:01:52;25.27;;;20.35;;
40931;SDS011;36257;46.052;12.540;2022-12-10T03:07:27;21.50;;;19.08;;
40931;SDS011;36257;46.052;12.540;2022-12-10T03:10:24;22.80;;;18.45;;
40931;SDS011;36257;46.052;12.540;2022-12-10T03:13:00;21.15;;;18.05;;
40931;SDS011;36257;46.052;12.540;2022-12-10T03:15:29;19.80;;;16.08;;
40931;SDS011;36257;46.052;12.540;2022-12-10T03:17:58;18.10;;;16.00;;
40931;SDS011;36257;46.052;12.540;2022-12-10T03:20:28;17.50;;;15.63;;
40931;SDS011;36257;46.052;12.540;2022-12-10T03:22:57;16.42;;;14.65;;
40931;SDS011;36257;46.052;12.540;2022-12-10T03:25:25;16.05;;;14.35;;
40931;SDS011;36257;46.052;12.540;2022-12-10T03:27:53;17.25;;;15.30;;
40931;SDS011;36257;46.052;12.540;2022-12-10T03:32:46;16.48;;;13.32;;
40931;SDS011;36257;46.052;12.540;2022-12-10T03:35:12;20.00;;;16.23;;
40931;SDS011;36257;46.052;12.540;2022-12-10T03:37:39;20.85;;;16.63;;
40931;SDS011;36257;46.052;12.540;2022-12-10T03:40:06;19.17;;;14.63;;
40931;SDS011;36257;46.052;12.540;2022-12-10T03:42:34;18.23;;;13.73;;
40931;SDS011;36257;46.052;12.540;2022-12-10T03:47:26;15.65;;;13.25;;
40931;SDS011;36257;46.052;12.540;2022-12-10T03:49:52;13.20;;;11.80;;
40931;SDS011;36257;46.052;12.540;2022-12-10T03:52:17;14.60;;;13.13;;
40931;SDS011;36257;46.052;12.540;2022-12-10T03:54:43;13.02;;;11.63;;
40931;SDS011;36257;46.052;12.540;2022-12-10T03:57:09;17.92;;;14.60;;
40931;SDS011;36257;46.052;12.540;2022-12-10T03:59:34;15.10;;;13.50;;
40931;SDS011;36257;46.052;12.540;2022-12-10T04:02:00;16.70;;;15.02;;
40931;SDS011;36257;46.052;12.540;2022-12-10T04:04:26;17.55;;;14.50;;
40931;SDS011;36257;46.052;12.540;2022-12-10T04:06:51;17.75;;;15.60;;
40931;SDS011;36257;46.052;12.540;2022-12-10T04:09:17;15.93;;;13.73;;
40931;SDS011;36257;46.052;12.540;2022-12-10T04:11:43;17.00;;;15.27;;
40931;SDS011;36257;46.052;12.540;2022-12-10T04:14:09;16.75;;;12.70;;
40931;SDS011;36257;46.052;12.540;2022-12-10T04:16:54;15.35;;;13.73;;
40931;SDS011;36257;46.052;12.540;2022-12-10T04:19:20;22.95;;;14.40;;
40931;SDS011;36257;46.052;12.540;2022-12-10T04:21:46;17.83;;;15.82;;
40931;SDS011;36257;46.052;12.540;2022-12-10T04:24:31;20.30;;;15.82;;
40931;SDS011;36257;46.052;12.540;2022-12-10T04:29:54;19.05;;;16.55;;
40931;SDS011;36257;46.052;12.540;2022-12-10T04:32:21;20.20;;;16.50;;
40931;SDS011;36257;46.052;12.540;2022-12-10T04:34:47;76.18;;;20.30;;
40931;SDS011;36257;46.052;12.540;2022-12-10T04:37:13;411.17;;;39.65;;
40931;SDS011;36257;46.052;12.540;2022-12-10T04:39:40;42.20;;;23.23;;
40931;SDS011;36257;46.052;12.540;2022-12-10T04:42:06;228.13;;;30.10;;
40931;SDS011;36257;46.052;12.540;2022-12-10T04:44:32;39.83;;;24.42;;
40931;SDS011;36257;46.052;12.540;2022-12-10T04:46:58;57.35;;;24.13;;
40931;SDS011;36257;46.052;12.540;2022-12-10T04:49:24;27.83;;;19.75;;
40931;SDS011;36257;46.052;12.540;2022-12-10T04:51:50;21.17;;;18.13;;
40931;SDS011;36257;46.052;12.540;2022-12-10T04:54:17;22.73;;;16.70;;
40931;SDS011;36257;46.052;12.540;2022-12-10T04:56:43;20.70;;;15.65;;
40931;SDS011;36257;46.052;12.540;2022-12-10T04:59:09;19.30;;;16.05;;
40931;SDS011;36257;46.052;12.540;2022-12-10T05:01:35;17.15;;;14.63;;
40931;SDS011;36257;46.052;12.540;2022-12-10T05:04:02;18.10;;;15.27;;
40931;SDS011;36257;46.052;12.540;2022-12-10T05:06:30;15.93;;;13.40;;
40931;SDS011;36257;46.052;12.540;2022-12-10T05:08:56;16.17;;;13.98;;
40931;SDS011;36257;46.052;12.540;2022-12-10T05:11:23;18.40;;;14.13;;
40931;SDS011;36257;46.052;12.540;2022-12-10T05:13:50;16.40;;;12.75;;
40931;SDS011;36257;46.052;12.540;2022-12-10T05:16:17;21.15;;;15.48;;
40931;SDS011;36257;46.052;12.540;2022-12-10T05:18:44;20.15;;;13.98;;
40931;SDS011;36257;46.052;12.540;2022-12-10T05:21:10;17.50;;;13.73;;
40931;SDS011;36257;46.052;12.540;2022-12-10T05:23:39;19.27;;;13.80;;
40931;SDS011;36257;46.052;12.540;2022-12-10T05:26:10;20.63;;;13.05;;
40931;SDS011;36257;46.052;12.540;2022-12-10T05:28:46;19.10;;;13.30;;
40931;SDS011;36257;46.052;12.540;2022-12-10T05:31:23;21.90;;;13.07;;
40931;SDS011;36257;46.052;12.540;2022-12-10T05:33:51;18.10;;;11.77;;
40931;SDS011;36257;46.052;12.540;2022-12-10T05:36:19;19.67;;;12.18;;
40931;SDS011;36257;46.052;12.540;2022-12-10T05:41:13;20.42;;;12.82;;
40931;SDS011;36257;46.052;12.540;2022-12-10T05:43:40;14.00;;;11.75;;
40931;SDS011;36257;46.052;12.540;2022-12-10T05:46:10;13.63;;;11.52;;
40931;SDS011;36257;46.052;12.540;2022-12-10T05:48:37;14.23;;;10.25;;
40931;SDS011;36257;46.052;12.540;2022-12-10T05:51:14;12.05;;;10.85;;
40931;SDS011;36257;46.052;12.540;2022-12-10T05:53:41;12.55;;;10.63;;
40931;SDS011;36257;46.052;12.540;2022-12-10T05:56:09;11.82;;;9.15;;
40931;SDS011;36257;46.052;12.540;2022-12-10T05:58:36;12.50;;;9.40;;
40931;SDS011;36257;46.052;12.540;2022-12-10T06:01:07;13.27;;;9.57;;
40931;SDS011;36257;46.052;12.540;2022-12-10T06:03:43;10.27;;;9.25;;
40931;SDS011;36257;46.052;12.540;2022-12-10T06:06:09;9.80;;;8.55;;
40931;SDS011;36257;46.052;12.540;2022-12-10T06:08:35;10.88;;;8.82;;
40931;SDS011;36257;46.052;12.540;2022-12-10T06:11:10;10.95;;;9.38;;
40931;SDS011;36257;46.052;12.540;2022-12-10T06:13:36;10.15;;;9.05;;
40931;SDS011;36257;46.052;12.540;2022-12-10T06:16:06;12.18;;;9.23;;
40931;SDS011;36257;46.052;12.540;2022-12-10T06:18:33;43.10;;;12.98;;
40931;SDS011;36257;46.052;12.540;2022-12-10T06:21:02;13.25;;;10.38;;
40931;SDS011;36257;46.052;12.540;2022-12-10T06:23:29;15.88;;;11.27;;
40931;SDS011;36257;46.052;12.540;2022-12-10T06:25:54;13.02;;;10.88;;
40931;SDS011;36257;46.052;12.540;2022-12-10T06:28:20;17.52;;;11.57;;
40931;SDS011;36257;46.052;12.540;2022-12-10T06:30:45;16.52;;;11.55;;
40931;SDS011;36257;46.052;12.540;2022-12-10T06:33:11;21.33;;;14.30;;
40931;SDS011;36257;46.052;12.540;2022-12-10T06:35:37;21.83;;;15.90;;
40931;SDS011;36257;46.052;12.540;2022-12-10T06:38:03;14.40;;;12.50;;
40931;SDS011;36257;46.052;12.540;2022-12-10T06:40:28;15.32;;;12.77;;
40931;SDS011;36257;46.052;12.540;2022-12-10T06:42:54;21.58;;;14.40;;
40931;SDS011;36257;46.052;12.540;2022-12-10T06:45:19;11.35;;;10.15;;
40931;SDS011;36257;46.052;12.540;2022-12-10T06:47:45;15.75;;;13.00;;
40931;SDS011;36257;46.052;12.540;2022-12-10T06:50:11;14.00;;;11.00;;
40931;SDS011;36257;46.052;12.540;2022-12-10T06:52:36;13.98;;;10.90;;
40931;SDS011;36257;46.052;12.540;2022-12-10T06:55:02;10.20;;;9.02;;
40931;SDS011;36257;46.052;12.540;2022-12-10T06:57:28;9.73;;;8.73;;
40931;SDS011;36257;46.052;12.540;2022-12-10T06:59:53;26.63;;;23.77;;
40931;SDS011;36257;46.052;12.540;2022-12-10T07:02:19;35.15;;;31.42;;
40931;SDS011;36257;46.052;12.540;2022-12-10T07:04:45;16.05;;;14.45;;
40931;SDS011;36257;46.052;12.540;2022-12-10T07:07:12;18.35;;;16.75;;
40931;SDS011;36257;46.052;12.540;2022-12-10T07:09:39;12.80;;;11.40;;
40931;SDS011;36257;46.052;12.540;2022-12-10T07:12:05;12.50;;;9.20;;
40931;SDS011;36257;46.052;12.540;2022-12-10T07:14:32;8.50;;;7.60;;
40931;SDS011;36257;46.052;12.540;2022-12-10T07:16:58;8.60;;;7.80;;
40931;SDS011;36257;46.052;12.540;2022-12-10T07:19:27;7.57;;;6.88;;
40931;SDS011;36257;46.052;12.540;2022-12-10T07:21:53;9.07;;;8.18;;
40931;SDS011;36257;46.052;12.540;2022-12-10T07:24:18;8.73;;;7.30;;
40931;SDS011;36257;46.052;12.540;2022-12-10T07:26:45;15.05;;;12.55;;
40931;SDS011;36257;46.052;12.540;2022-12-10T07:29:18;13.65;;;11.38;;
40931;SDS011;36257;46.052;12.540;2022-12-10T07:31:46;13.20;;;11.82;;
40931;SDS011;36257;46.052;12.540;2022-12-10T07:34:13;16.92;;;15.13;;
40931;SDS011;36257;46.052;12.540;2022-12-10T07:39:15;19.05;;;17.00;;
40931;SDS011;36257;46.052;12.540;2022-12-10T07:41:44;14.60;;;13.10;;
40931;SDS011;36257;46.052;12.540;2022-12-10T07:44:18;10.40;;;9.02;;
40931;SDS011;36257;46.052;12.540;2022-12-10T07:46:46;23.80;;;21.48;;
40931;SDS011;36257;46.052;12.540;2022-12-10T07:49:14;18.17;;;16.33;;
40931;SDS011;36257;46.052;12.540;2022-12-10T07:51:43;17.27;;;15.68;;
40931;SDS011;36257;46.052;12.540;2022-12-10T07:54:10;15.00;;;13.60;;
40931;SDS011;36257;46.052;12.540;2022-12-10T07:56:37;10.57;;;9.48;;
40931;SDS011;36257;46.052;12.540;2022-12-10T07:59:02;9.43;;;8.52;;
40931;SDS011;36257;46.052;12.540;2022-12-10T08:01:29;10.30;;;9.32;;
40931;SDS011;36257;46.052;12.540;2022-12-10T08:03:56;10.85;;;9.85;;
40931;SDS011;36257;46.052;12.540;2022-12-10T08:06:23;11.40;;;10.35;;
40931;SDS011;36257;46.052;12.540;2022-12-10T08:08:50;10.40;;;9.43;;
40931;SDS011;36257;46.052;12.540;2022-12-10T08:11:16;14.38;;;12.88;;
40931;SDS011;36257;46.052;12.540;2022-12-10T08:13:43;12.52;;;11.10;;
40931;SDS011;36257;46.052;12.540;2022-12-10T08:16:11;10.15;;;8.80;;
40931;SDS011;36257;46.052;12.540;2022-12-10T08:18:39;13.55;;;10.30;;
40931;SDS011;36257;46.052;12.540;2022-12-10T08:21:06;8.25;;;6.90;;
40931;SDS011;36257;46.052;12.540;2022-12-10T08:23:34;5.88;;;5.38;;
40931;SDS011;36257;46.052;12.540;2022-12-10T08:26:07;4.05;;;3.75;;
40931;SDS011;36257;46.052;12.540;2022-12-10T08:28:39;4.32;;;3.92;;
40931;SDS011;36257;46.052;12.540;2022-12-10T08:31:06;9.80;;;8.50;;
40931;SDS011;36257;46.052;12.540;2022-12-10T08:33:34;12.75;;;8.85;;
40931;SDS011;36257;46.052;12.540;2022-12-10T08:36:01;11.02;;;7.28;;
40931;SDS011;36257;46.052;12.540;2022-12-10T08:38:29;16.02;;;10.35;;
40931;SDS011;36257;46.052;12.540;2022-12-10T08:40:55;5.43;;;5.03;;
40931;SDS011;36257;46.052;12.540;2022-12-10T08:43:20;4.05;;;3.72;;
40931;SDS011;36257;46.052;12.540;2022-12-10T08:45:46;6.28;;;5.60;;
40931;SDS011;36257;46.052;12.540;2022-12-10T08:48:12;7.22;;;6.63;;
40931;SDS011;36257;46.052;12.540;2022-12-10T08:50:38;6.68;;;6.07;;
40931;SDS011;36257;46.052;12.540;2022-12-10T08:53:04;8.75;;;6.97;;
40931;SDS011;36257;46.052;12.540;2022-12-10T08:55:29;11.43;;;5.75;;
40931;SDS011;36257;46.052;12.540;2022-12-10T08:57:56;12.00;;;9.93;;
40931;SDS011;36257;46.052;12.540;2022-12-10T09:00:22;6.45;;;5.85;;
40931;SDS011;36257;46.052;12.540;2022-12-10T09:02:48;6.65;;;6.05;;
40931;SDS011;36257;46.052;12.540;2022-12-10T09:05:14;6.85;;;6.15;;
40931;SDS011;36257;46.052;12.540;2022-12-10T09:07:40;7.68;;;6.88;;
40931;SDS011;36257;46.052;12.540;2022-12-10T09:10:06;9.73;;;8.68;;
40931;SDS011;36257;46.052;12.540;2022-12-10T09:12:35;9.90;;;8.35;;
40931;SDS011;36257;46.052;12.540;2022-12-10T09:15:00;9.52;;;8.18;;
40931;SDS011;36257;46.052;12.540;2022-12-10T09:17:26;9.18;;;8.02;;
40931;SDS011;36257;46.052;12.540;2022-12-10T09:19:52;9.75;;;8.75;;
40931;SDS011;36257;46.052;12.540;2022-12-10T09:22:17;9.68;;;8.10;;
40931;SDS011;36257;46.052;12.540;2022-12-10T09:24:43;9.35;;;8.30;;
40931;SDS011;36257;46.052;12.540;2022-12-10T09:27:08;7.88;;;7.18;;
40931;SDS011;36257;46.052;12.540;2022-12-10T09:29:34;9.18;;;8.27;;
40931;SDS011;36257;46.052;12.540;2022-12-10T09:32:00;8.77;;;7.88;;
40931;SDS011;36257;46.052;12.540;2022-12-10T09:34:25;9.93;;;9.02;;
40931;SDS011;36257;46.052;12.540;2022-12-10T09:36:51;8.85;;;8.05;;
40931;SDS011;36257;46.052;12.540;2022-12-10T09:39:17;9.18;;;6.80;;
40931;SDS011;36257;46.052;12.540;2022-12-10T09:44:39;15.65;;;12.88;;
40931;SDS011;36257;46.052;12.540;2022-12-10T09:47:08;14.00;;;12.52;;
40931;SDS011;36257;46.052;12.540;2022-12-10T09:49:45;11.90;;;10.70;;
40931;SDS011;36257;46.052;12.540;2022-12-10T09:52:36;11.57;;;10.02;;
40931;SDS011;36257;46.052;12.540;2022-12-10T09:55:12;12.40;;;10.80;;
40931;SDS011;36257;46.052;12.540;2022-12-10T09:57:42;10.93;;;9.82;;
40931;SDS011;36257;46.052;12.540;2022-12-10T10:00:30;10.75;;;9.65;;
40931;SDS011;36257;46.052;12.540;2022-12-10T10:03:00;10.93;;;9.82;;
40931;SDS011;36257;46.052;12.540;2022-12-10T10:05:28;11.50;;;9.77;;
40931;SDS011;36257;46.052;12.540;2022-12-10T10:07:59;9.10;;;8.20;;
40931;SDS011;36257;46.052;12.540;2022-12-10T10:10:34;8.10;;;7.13;;
40931;SDS011;36257;46.052;12.540;2022-12-10T10:15:55;8.23;;;7.32;;
40931;SDS011;36257;46.052;12.540;2022-12-10T10:18:30;7.40;;;6.70;;
40931;SDS011;36257;46.052;12.540;2022-12-10T10:21:26;7.40;;;6.70;;
40931;SDS011;36257;46.052;12.540;2022-12-10T10:23:55;8.80;;;7.15;;
40931;SDS011;36257;46.052;12.540;2022-12-10T10:26:23;7.25;;;6.60;;
40931;SDS011;36257;46.052;12.540;2022-12-10T10:28:51;6.78;;;6.18;;
40931;SDS011;36257;46.052;12.540;2022-12-10T10:31:29;6.80;;;6.18;;
40931;SDS011;36257;46.052;12.540;2022-12-10T10:33:57;9.90;;;8.55;;
40931;SDS011;36257;46.052;12.540;2022-12-10T10:36:29;8.95;;;7.85;;
40931;SDS011;36257;46.052;12.540;2022-12-10T10:38:57;7.05;;;6.32;;
40931;SDS011;36257;46.052;12.540;2022-12-10T10:41:36;6.32;;;5.75;;
40931;SDS011;36257;46.052;12.540;2022-12-10T10:44:05;6.25;;;5.65;;
40931;SDS011;36257;46.052;12.540;2022-12-10T10:46:41;5.88;;;5.38;;
40931;SDS011;36257;46.052;12.540;2022-12-10T10:51:50;4.57;;;4.28;;
40931;SDS011;36257;46.052;12.540;2022-12-10T10:56:56;8.68;;;7.38;;
40931;SDS011;36257;46.052;12.540;2022-12-10T11:01:57;6.72;;;6.13;;
40931;SDS011;36257;46.052;12.540;2022-12-10T11:04:44;9.85;;;8.48;;
40931;SDS011;36257;46.052;12.540;2022-12-10T11:07:19;11.07;;;9.93;;
40931;SDS011;36257;46.052;12.540;2022-12-10T11:09:51;9.23;;;8.30;;
40931;SDS011;36257;46.052;12.540;2022-12-10T11:12:23;10.57;;;9.57;;
40931;SDS011;36257;46.052;12.540;2022-12-10T11:14:52;15.35;;;12.88;;
40931;SDS011;36257;46.052;12.540;2022-12-10T11:17:19;45.17;;;36.70;;
40931;SDS011;36257;46.052;12.540;2022-12-10T11:22:40;12.20;;;11.00;;
40931;SDS011;36257;46.052;12.540;2022-12-10T11:25:22;13.82;;;12.20;;
40931;SDS011;36257;46.052;12.540;2022-12-10T11:30:42;9.73;;;8.52;;
40931;SDS011;36257;46.052;12.540;2022-12-10T11:33:18;9.77;;;7.95;;
40931;SDS011;36257;46.052;12.540;2022-12-10T11:38:45;6.45;;;5.85;;
40931;SDS011;36257;46.052;12.540;2022-12-10T11:41:27;8.57;;;7.68;;
40931;SDS011;36257;46.052;12.540;2022-12-10T11:47:15;6.20;;;5.70;;
40931;SDS011;36257;46.052;12.540;2022-12-10T12:09:57;8.27;;;7.47;;
40931;SDS011;36257;46.052;12.540;2022-12-10T12:12:41;7.82;;;7.13;;
40931;SDS011;36257;46.052;12.540;2022-12-10T12:15:23;7.68;;;6.97;;
40931;SDS011;36257;46.052;12.540;2022-12-10T12:18:02;7.95;;;7.15;;
40931;SDS011;36257;46.052;12.540;2022-12-10T12:20:32;8.30;;;7.50;;
40931;SDS011;36257;46.052;12.540;2022-12-10T12:23:14;8.48;;;7.60;;
40931;SDS011;36257;46.052;12.540;2022-12-10T12:25:46;7.88;;;7.18;;
40931;SDS011;36257;46.052;12.540;2022-12-10T12:28:25;7.88;;;7.18;;
40931;SDS011;36257;46.052;12.540;2022-12-10T12:30:58;8.93;;;7.15;;
40931;SDS011;36257;46.052;12.540;2022-12-10T12:33:42;8.70;;;7.72;;
40931;SDS011;36257;46.052;12.540;2022-12-10T12:36:17;8.15;;;7.43;;
40931;SDS011;36257;46.052;12.540;2022-12-10T12:38:58;9.68;;;8.65;;
40931;SDS011;36257;46.052;12.540;2022-12-10T12:46:55;6.32;;;5.78;;
40931;SDS011;36257;46.052;12.540;2022-12-10T12:49:30;6.32;;;5.72;;
40931;SDS011;36257;46.052;12.540;2022-12-10T12:52:14;7.60;;;6.90;;
40931;SDS011;36257;46.052;12.540;2022-12-10T12:55:06;8.05;;;6.45;;
40931;SDS011;36257;46.052;12.540;2022-12-10T13:00:39;8.32;;;7.53;;
40931;SDS011;36257;46.052;12.540;2022-12-10T13:08:52;8.82;;;7.93;;
40931;SDS011;36257;46.052;12.540;2022-12-10T13:11:36;9.90;;;9.00;;
40931;SDS011;36257;46.052;12.540;2022-12-10T13:16:43;10.48;;;9.38;;
40931;SDS011;36257;46.052;12.540;2022-12-10T13:34:44;10.70;;;9.68;;
40931;SDS011;36257;46.052;12.540;2022-12-10T13:37:15;10.93;;;9.80;;
40931;SDS011;36257;46.052;12.540;2022-12-10T13:40:00;10.98;;;9.98;;
40931;SDS011;36257;46.052;12.540;2022-12-10T13:42:54;11.13;;;9.93;;
40931;SDS011;36257;46.052;12.540;2022-12-10T13:45:41;11.18;;;10.18;;
40931;SDS011;36257;46.052;12.540;2022-12-10T13:48:17;11.45;;;10.25;;
40931;SDS011;36257;46.052;12.540;2022-12-10T13:51:08;11.80;;;9.65;;
40931;SDS011;36257;46.052;12.540;2022-12-10T13:54:04;10.15;;;8.77;;
40931;SDS011;36257;46.052;12.540;2022-12-10T13:56:58;10.38;;;9.38;;
40931;SDS011;36257;46.052;12.540;2022-12-10T14:08:13;10.23;;;9.23;;
40931;SDS011;36257;46.052;12.540;2022-12-10T14:10:46;11.52;;;10.32;;
40931;SDS011;36257;46.052;12.540;2022-12-10T14:13:13;11.02;;;9.93;;
40931;SDS011;36257;46.052;12.540;2022-12-10T14:15:41;13.68;;;12.25;;
40931;SDS011;36257;46.052;12.540;2022-12-10T14:18:23;13.13;;;11.73;;
40931;SDS011;36257;46.052;12.540;2022-12-10T14:26:21;18.45;;;16.23;;
40931;SDS011;36257;46.052;12.540;2022-12-10T14:28:56;20.17;;;17.42;;
40931;SDS011;36257;46.052;12.540;2022-12-10T14:31:34;15.85;;;14.18;;
40931;SDS011;36257;46.052;12.540;2022-12-10T14:34:06;14.52;;;12.95;;
40931;SDS011;36257;46.052;12.540;2022-12-10T14:36:34;15.48;;;14.00;;
40931;SDS011;36257;46.052;12.540;2022-12-10T14:39:16;15.82;;;14.27;;
40931;SDS011;36257;46.052;12.540;2022-12-10T14:41:45;17.10;;;14.40;;
40931;SDS011;36257;46.052;12.540;2022-12-10T14:44:14;15.63;;;13.93;;
40931;SDS011;36257;46.052;12.540;2022-12-10T14:46:42;16.95;;;15.18;;
40931;SDS011;36257;46.052;12.540;2022-12-10T14:49:21;18.20;;;14.70;;
40931;SDS011;36257;46.052;12.540;2022-12-10T14:51:50;16.65;;;14.70;;
40931;SDS011;36257;46.052;12.540;2022-12-10T14:54:23;16.50;;;14.93;;
40931;SDS011;36257;46.052;12.540;2022-12-10T14:56:56;14.90;;;13.40;;
40931;SDS011;36257;46.052;12.540;2022-12-10T14:59:25;14.65;;;13.10;;
40931;SDS011;36257;46.052;12.540;2022-12-10T15:01:59;15.88;;;14.30;;
40931;SDS011;36257;46.052;12.540;2022-12-10T15:04:39;14.07;;;12.60;;
40931;SDS011;36257;46.052;12.540;2022-12-10T15:07:11;12.95;;;11.20;;
40931;SDS011;36257;46.052;12.540;2022-12-10T15:09:42;11.20;;;10.10;;
40931;SDS011;36257;46.052;12.540;2022-12-10T15:15:15;9.00;;;8.23;;
40931;SDS011;36257;46.052;12.540;2022-12-10T15:20:36;7.68;;;5.90;;
40931;SDS011;36257;46.052;12.540;2022-12-10T15:23:15;5.70;;;5.20;;
40931;SDS011;36257;46.052;12.540;2022-12-10T15:25:45;5.97;;;5.47;;
40931;SDS011;36257;46.052;12.540;2022-12-10T15:28:49;3.70;;;3.40;;
40931;SDS011;36257;46.052;12.540;2022-12-10T15:33:59;3.42;;;3.13;;
40931;SDS011;36257;46.052;12.540;2022-12-10T15:36:36;3.90;;;3.60;;
40931;SDS011;36257;46.052;12.540;2022-12-10T15:44:19;2.63;;;2.45;;
40931;SDS011;36257;46.052;12.540;2022-12-10T15:47:00;3.05;;;2.85;;
40931;SDS011;36257;46.052;12.540;2022-12-10T15:49:32;3.50;;;3.25;;
40931;SDS011;36257;46.052;12.540;2022-12-10T15:51:57;4.10;;;3.80;;
40931;SDS011;36257;46.052;12.540;2022-12-10T15:54:33;3.92;;;3.63;;
40931;SDS011;36257;46.052;12.540;2022-12-10T15:57:20;3.92;;;3.63;;
40931;SDS011;36257;46.052;12.540;2022-12-10T15:59:52;3.15;;;2.88;;
40931;SDS011;36257;46.052;12.540;2022-12-10T16:05:10;2.38;;;2.28;;
40931;SDS011;36257;46.052;12.540;2022-12-10T16:07:47;2.40;;;2.20;;
40931;SDS011;36257;46.052;12.540;2022-12-10T16:10:15;2.35;;;2.20;;
40931;SDS011;36257;46.052;12.540;2022-12-10T16:12:42;6.53;;;2.70;;
40931;SDS011;36257;46.052;12.540;2022-12-10T16:15:14;9.63;;;8.65;;
40931;SDS011;36257;46.052;12.540;2022-12-10T16:17:46;13.52;;;10.73;;
40931;SDS011;36257;46.052;12.540;2022-12-10T16:20:30;21.77;;;13.10;;
40931;SDS011;36257;46.052;12.540;2022-12-10T16:22:58;3.75;;;3.45;;
40931;SDS011;36257;46.052;12.540;2022-12-10T16:25:25;5.32;;;4.75;;
40931;SDS011;36257;46.052;12.540;2022-12-10T16:27:53;6.05;;;4.25;;
40931;SDS011;36257;46.052;12.540;2022-12-10T16:30:22;3.10;;;2.80;;
40931;SDS011;36257;46.052;12.540;2022-12-10T16:32:51;3.20;;;2.90;;
40931;SDS011;36257;46.052;12.540;2022-12-10T16:35:17;2.80;;;2.40;;
40931;SDS011;36257;46.052;12.540;2022-12-10T16:37:43;2.25;;;2.13;;
40931;SDS011;36257;46.052;12.540;2022-12-10T16:40:11;2.58;;;2.38;;
40931;SDS011;36257;46.052;12.540;2022-12-10T16:42:38;2.45;;;2.10;;
40931;SDS011;36257;46.052;12.540;2022-12-10T16:45:47;2.33;;;2.22;;
40931;SDS011;36257;46.052;12.540;2022-12-10T16:48:04;4.88;;;4.35;;
40931;SDS011;36257;46.052;12.540;2022-12-10T16:50:30;5.90;;;5.25;;
40931;SDS011;36257;46.052;12.540;2022-12-10T16:52:56;6.35;;;5.38;;
40931;SDS011;36257;46.052;12.540;2022-12-10T16:55:24;5.20;;;4.78;;
40931;SDS011;36257;46.052;12.540;2022-12-10T16:57:51;5.03;;;4.55;;
40931;SDS011;36257;46.052;12.540;2022-12-10T17:00:19;5.10;;;4.60;;